createdAt,value
2022-08-19T00:01:02.127Z,26.75
2022-08-19T00:03:35.684Z,26.08
2022-08-19T00:06:03.515Z,26.20
2022-08-19T00:08:30.673Z,26.40
2022-08-19T00:11:04.723Z,26.98
2022-08-19T00:13:33.699Z,27.67
2022-08-19T00:16:01.503Z,26.92
2022-08-19T00:18:35.699Z,24.90
2022-08-19T00:21:03.282Z,29.00
2022-08-19T00:26:04.779Z,23.70
2022-08-19T00:28:38.659Z,23.38
2022-08-19T00:31:19.713Z,26.55
2022-08-19T00:33:47.051Z,24.25
2022-08-19T00:36:14.197Z,27.73
2022-08-19T00:38:50.913Z,25.08
2022-08-19T00:41:22.166Z,22.83
2022-08-19T00:44:27.743Z,24.65
2022-08-19T00:46:58.049Z,29.20
2022-08-19T00:49:26.027Z,25.02
2022-08-19T00:52:01.726Z,30.50
2022-08-19T00:54:31.081Z,27.20
2022-08-19T00:56:59.043Z,24.05
2022-08-19T01:00:00.993Z,23.15
2022-08-19T01:02:21.393Z,18.30
2022-08-19T01:04:54.712Z,22.77
2022-08-19T01:07:22.000Z,21.27
2022-08-19T01:09:51.390Z,19.58
2022-08-19T01:14:52.304Z,19.77
2022-08-19T01:19:54.705Z,21.92
2022-08-19T01:22:31.423Z,21.35
2022-08-19T01:25:08.884Z,20.40
2022-08-19T01:27:50.672Z,26.40
2022-08-19T01:33:01.518Z,20.90
2022-08-19T01:35:36.707Z,19.80
2022-08-19T01:38:09.484Z,18.73
2022-08-19T01:40:45.742Z,26.77
2022-08-19T01:43:12.972Z,23.15
2022-08-19T01:45:41.285Z,21.73
2022-08-19T01:48:15.752Z,26.80
2022-08-19T01:50:44.490Z,23.88
2022-08-19T01:53:12.740Z,23.85
2022-08-19T01:55:48.774Z,22.90
2022-08-19T01:58:22.543Z,24.38
2022-08-19T02:00:56.760Z,28.05
2022-08-19T02:03:24.093Z,26.77
2022-08-19T02:05:56.102Z,28.23
2022-08-19T02:08:29.783Z,23.45
2022-08-19T02:10:56.982Z,30.15
2022-08-19T02:13:26.371Z,32.88
2022-08-19T02:16:00.782Z,29.25
2022-08-19T02:18:31.582Z,28.52
2022-08-19T02:20:58.709Z,29.95
2022-08-19T02:23:32.819Z,30.50
2022-08-19T02:26:00.151Z,31.92
2022-08-19T02:28:40.804Z,31.33
2022-08-19T02:31:16.387Z,28.25
2022-08-19T02:33:49.794Z,31.65
2022-08-19T02:36:20.582Z,30.20
2022-08-19T02:38:54.450Z,27.15
2022-08-19T02:41:30.750Z,29.90
2022-08-19T02:44:22.990Z,26.63
2022-08-19T02:46:53.749Z,29.00
2022-08-19T02:49:21.315Z,27.77
2022-08-19T02:54:29.849Z,28.65
2022-08-19T02:56:57.065Z,29.13
2022-08-19T02:59:25.701Z,30.02
2022-08-19T03:02:05.850Z,31.67
2022-08-19T03:04:33.129Z,27.75
2022-08-19T03:07:11.171Z,31.10
2022-08-19T03:09:45.788Z,31.73
2022-08-19T03:12:13.100Z,30.65
2022-08-19T03:14:40.379Z,28.73
2022-08-19T03:17:15.862Z,30.73
2022-08-19T03:19:44.093Z,34.08
2022-08-19T03:22:11.360Z,30.50
2022-08-19T03:24:45.844Z,35.38
2022-08-19T03:27:13.410Z,33.28
2022-08-19T03:32:32.811Z,31.17
2022-08-19T03:35:07.295Z,32.15
2022-08-19T03:37:34.752Z,32.40
2022-08-19T03:40:03.631Z,34.55
2022-08-19T03:42:48.826Z,37.47
2022-08-19T03:45:16.807Z,34.13
2022-08-19T03:47:50.884Z,35.58
2022-08-19T03:50:18.842Z,35.95
2022-08-19T03:52:49.621Z,33.88
2022-08-19T03:55:23.915Z,32.03
2022-08-19T03:57:56.195Z,31.55
2022-08-19T04:00:32.792Z,31.20
2022-08-19T04:03:00.824Z,30.85
2022-08-19T04:05:29.609Z,32.45
2022-08-19T04:08:10.726Z,31.08
2022-08-19T04:10:41.633Z,30.92
2022-08-19T04:13:16.778Z,31.33
2022-08-19T04:15:45.890Z,31.58
2022-08-19T04:18:13.028Z,32.65
2022-08-19T04:20:50.838Z,32.72
2022-08-19T04:23:19.600Z,31.88
2022-08-19T04:25:46.764Z,32.13
2022-08-19T04:28:20.841Z,31.77
2022-08-19T04:30:50.137Z,30.10
2022-08-19T04:33:18.381Z,27.77
2022-08-19T04:36:00.814Z,29.73
2022-08-19T04:38:28.065Z,27.27
2022-08-19T04:41:20.805Z,29.13
2022-08-19T04:43:51.391Z,27.50
2022-08-19T04:46:40.565Z,27.13
2022-08-19T04:49:13.966Z,26.92
2022-08-19T04:51:43.703Z,26.45
2022-08-19T04:54:11.306Z,25.52
2022-08-19T04:56:46.957Z,24.65
2022-08-19T04:59:15.619Z,24.45
2022-08-19T05:01:44.227Z,25.63
2022-08-19T05:04:17.802Z,25.17
2022-08-19T05:06:49.797Z,24.38
2022-08-19T05:09:24.830Z,23.20
2022-08-19T05:11:54.502Z,23.38
2022-08-19T05:14:22.607Z,23.30
2022-08-19T05:17:23.648Z,22.17
2022-08-19T05:20:16.542Z,22.80
2022-08-19T05:22:51.966Z,21.27
2022-08-19T05:25:20.779Z,22.13
2022-08-19T05:27:48.767Z,22.67
2022-08-19T05:30:33.517Z,20.95
2022-08-19T05:33:10.957Z,21.15
2022-08-19T05:35:45.849Z,20.63
2022-08-19T05:38:13.655Z,21.80
2022-08-19T05:40:41.113Z,21.30
2022-08-19T05:43:15.896Z,22.15
2022-08-19T05:45:43.476Z,21.15
2022-08-19T05:50:46.850Z,20.10
2022-08-19T05:53:17.278Z,19.92
2022-08-19T05:55:44.467Z,21.40
2022-08-19T05:58:23.276Z,20.48
2022-08-19T06:00:55.765Z,20.92
2022-08-19T06:03:29.925Z,19.83
2022-08-19T06:05:57.191Z,19.80
2022-08-19T06:08:34.531Z,19.20
2022-08-19T06:11:20.870Z,18.75
2022-08-19T06:13:52.014Z,19.48
2022-08-19T06:16:34.943Z,20.60
2022-08-19T06:19:03.077Z,19.15
2022-08-19T06:21:31.074Z,18.90
2022-08-19T06:24:05.947Z,19.52
2022-08-19T06:26:33.279Z,19.92
2022-08-19T06:29:23.700Z,19.52
2022-08-19T06:31:52.657Z,20.85
2022-08-19T06:34:20.528Z,18.80
2022-08-19T06:36:55.870Z,17.23
2022-08-19T06:39:25.126Z,16.80
2022-08-19T06:41:55.534Z,17.30
2022-08-19T06:44:33.876Z,17.10
2022-08-19T06:47:09.476Z,16.60
2022-08-19T06:49:49.307Z,16.17
2022-08-19T06:52:16.972Z,15.90
2022-08-19T06:54:53.692Z,16.02
2022-08-19T06:57:29.869Z,17.25
2022-08-19T06:59:57.471Z,16.00
2022-08-19T07:02:27.353Z,16.58
2022-08-19T07:05:00.852Z,16.45
2022-08-19T07:07:28.071Z,15.70
2022-08-19T07:09:59.206Z,16.55
2022-08-19T07:12:35.504Z,17.27
2022-08-19T07:15:07.022Z,16.75
2022-08-19T07:17:42.887Z,16.23
2022-08-19T07:20:12.019Z,14.88
2022-08-19T07:22:40.041Z,15.27
2022-08-19T07:25:15.044Z,15.02
2022-08-19T07:27:42.253Z,15.63
2022-08-19T07:30:33.024Z,17.15
2022-08-19T07:33:03.452Z,16.70
2022-08-19T07:35:39.884Z,16.75
2022-08-19T07:38:07.229Z,17.13
2022-08-19T07:40:34.436Z,16.35
2022-08-19T07:43:10.199Z,15.40
2022-08-19T07:45:40.911Z,15.88
2022-08-19T07:48:14.923Z,14.95
2022-08-19T07:50:42.220Z,15.27
2022-08-19T07:53:09.408Z,15.05
2022-08-19T07:55:44.039Z,14.80
2022-08-19T07:58:12.432Z,14.75
2022-08-19T08:00:40.021Z,14.15
2022-08-19T08:03:13.993Z,13.85
2022-08-19T08:06:00.546Z,14.15
2022-08-19T08:08:53.028Z,14.60
2022-08-19T08:11:21.286Z,13.02
2022-08-19T08:14:01.495Z,12.40
2022-08-19T08:16:46.982Z,12.65
2022-08-19T08:19:25.260Z,12.48
2022-08-19T08:21:59.985Z,13.18
2022-08-19T08:24:29.078Z,12.00
2022-08-19T08:26:57.759Z,13.13
2022-08-19T08:29:34.722Z,12.27
2022-08-19T08:32:14.831Z,12.03
2022-08-19T08:34:52.422Z,13.35
2022-08-19T08:37:20.003Z,13.15
2022-08-19T08:39:48.374Z,12.43
2022-08-19T08:42:30.905Z,12.75
2022-08-19T08:45:00.428Z,11.88
2022-08-19T08:47:30.124Z,12.00
2022-08-19T08:50:26.396Z,12.07
2022-08-19T08:52:57.916Z,13.07
2022-08-19T08:55:36.805Z,12.32
2022-08-19T08:58:04.710Z,13.02
2022-08-19T09:03:06.032Z,11.07
2022-08-19T09:05:48.993Z,11.85
2022-08-19T09:08:32.986Z,13.52
2022-08-19T09:11:00.305Z,11.73
2022-08-19T09:13:27.423Z,12.32
2022-08-19T09:16:09.023Z,12.02
2022-08-19T09:18:42.393Z,11.70
2022-08-19T09:21:17.192Z,11.70
2022-08-19T09:23:44.687Z,10.90
2022-08-19T09:28:51.223Z,11.45
2022-08-19T09:31:25.865Z,10.63
2022-08-19T09:34:00.063Z,10.77
2022-08-19T09:36:39.739Z,10.32
2022-08-19T09:39:16.080Z,10.23
2022-08-19T09:41:47.498Z,10.23
2022-08-19T09:44:22.929Z,10.93
2022-08-19T09:46:53.728Z,10.77
2022-08-19T09:49:31.128Z,10.23
2022-08-19T09:51:58.580Z,10.02
2022-08-19T09:54:25.767Z,10.02
2022-08-19T09:57:00.047Z,9.60
2022-08-19T09:59:30.316Z,10.30
2022-08-19T10:02:10.967Z,10.50
2022-08-19T10:07:36.337Z,9.55
2022-08-19T10:10:07.748Z,8.95
2022-08-19T10:12:41.947Z,9.98
2022-08-19T10:15:09.335Z,9.23
2022-08-19T10:17:36.839Z,8.35
2022-08-19T10:20:11.949Z,8.82
2022-08-19T10:22:39.206Z,9.05
2022-08-19T10:27:40.037Z,8.73
2022-08-19T10:30:27.813Z,8.90
2022-08-19T10:33:05.407Z,9.63
2022-08-19T10:35:56.528Z,9.07
2022-08-19T10:38:32.533Z,8.45
2022-08-19T10:41:07.741Z,9.13
2022-08-19T10:43:44.986Z,9.13
2022-08-19T10:46:14.227Z,8.80
2022-08-19T10:48:44.623Z,8.82
2022-08-19T10:51:38.057Z,8.93
2022-08-19T10:54:15.033Z,8.90
2022-08-19T10:59:33.823Z,9.05
2022-08-19T11:02:11.020Z,8.65
2022-08-19T11:04:38.652Z,8.73
2022-08-19T11:07:07.295Z,8.50
2022-08-19T11:09:47.078Z,8.73
2022-08-19T11:12:14.693Z,8.45
2022-08-19T11:14:41.838Z,9.15
2022-08-19T11:17:15.979Z,8.52
2022-08-19T11:19:43.362Z,8.00
2022-08-19T11:22:10.879Z,8.10
2022-08-19T11:24:50.071Z,8.95
2022-08-19T11:27:17.289Z,8.55
2022-08-19T11:32:26.044Z,8.23
2022-08-19T11:34:53.310Z,8.23
2022-08-19T11:39:56.139Z,8.63
2022-08-19T11:42:41.784Z,8.15
2022-08-19T11:45:16.972Z,8.23
2022-08-19T11:47:45.201Z,8.98
2022-08-19T11:50:12.412Z,8.27
2022-08-19T11:55:16.088Z,8.70
2022-08-19T11:57:44.623Z,8.88
2022-08-19T12:00:20.045Z,7.95
2022-08-19T12:02:47.249Z,8.18
2022-08-19T12:07:51.111Z,9.05
2022-08-19T12:10:19.458Z,8.25
2022-08-19T12:12:53.825Z,8.25
2022-08-19T12:15:37.251Z,8.13
2022-08-19T12:18:04.622Z,9.40
2022-08-19T12:20:32.662Z,8.48
2022-08-19T12:23:10.078Z,8.80
2022-08-19T12:25:37.884Z,8.70
2022-08-19T12:28:05.171Z,8.30
2022-08-19T12:33:12.084Z,8.63
2022-08-19T12:35:49.330Z,8.63
2022-08-19T12:38:16.645Z,8.65
2022-08-19T12:40:46.681Z,8.68
2022-08-19T12:43:21.103Z,8.90
2022-08-19T12:45:48.663Z,8.57
2022-08-19T12:48:33.843Z,8.48
2022-08-19T12:51:10.165Z,8.55
2022-08-19T12:53:39.393Z,9.00
2022-08-19T12:56:08.950Z,8.38
2022-08-19T12:58:49.043Z,8.43
2022-08-19T13:01:20.324Z,9.23
2022-08-19T13:03:57.008Z,9.00
2022-08-19T13:06:24.234Z,8.75
2022-08-19T13:11:28.210Z,8.73
2022-08-19T13:13:56.202Z,9.27
2022-08-19T13:16:23.503Z,9.40
2022-08-19T13:21:29.884Z,8.85
2022-08-19T13:23:57.285Z,8.48
2022-08-19T13:26:31.094Z,9.57
2022-08-19T13:29:16.885Z,9.63
2022-08-19T13:32:18.543Z,9.30
2022-08-19T13:34:53.303Z,8.38
2022-08-19T13:37:47.052Z,8.80
2022-08-19T13:40:18.058Z,8.95
2022-08-19T13:43:00.148Z,9.50
2022-08-19T13:45:29.122Z,9.52
2022-08-19T13:47:59.652Z,8.90
2022-08-19T13:50:35.039Z,8.75
2022-08-19T13:53:03.404Z,9.13
2022-08-19T13:55:31.046Z,9.30
2022-08-19T13:58:06.035Z,10.00
2022-08-19T14:00:38.376Z,8.57
2022-08-19T14:03:09.132Z,9.52
2022-08-19T14:05:44.120Z,9.27
2022-08-19T14:08:11.423Z,9.40
2022-08-19T14:13:12.123Z,9.88
2022-08-19T14:15:39.280Z,9.35
2022-08-19T14:18:06.568Z,9.15
2022-08-19T14:23:07.435Z,10.27
2022-08-19T14:28:10.111Z,9.85
2022-08-19T14:30:45.556Z,10.23
2022-08-19T14:33:19.517Z,9.63
2022-08-19T14:35:46.868Z,10.25
2022-08-19T14:40:50.205Z,10.02
2022-08-19T14:43:18.662Z,9.75
2022-08-19T14:45:45.826Z,10.65
2022-08-19T14:48:21.173Z,9.75
2022-08-19T14:50:48.435Z,10.57
2022-08-19T14:53:17.812Z,9.95
2022-08-19T14:55:52.144Z,9.50
2022-08-19T14:58:29.888Z,10.02
2022-08-19T15:01:05.280Z,10.07
2022-08-19T15:03:33.135Z,10.48
2022-08-19T15:06:01.605Z,10.23
2022-08-19T15:08:36.144Z,10.38
2022-08-19T15:11:03.490Z,9.73
2022-08-19T15:16:05.074Z,9.40
2022-08-19T15:18:33.532Z,10.07
2022-08-19T15:21:00.786Z,9.23
2022-08-19T15:26:01.510Z,9.90
2022-08-19T15:31:02.182Z,9.68
2022-08-19T15:33:37.555Z,10.20
2022-08-19T15:36:14.076Z,10.15
2022-08-19T15:38:46.174Z,9.95
2022-08-19T15:41:30.186Z,9.48
2022-08-19T15:43:58.787Z,10.55
2022-08-19T15:46:28.253Z,9.90
2022-08-19T15:49:03.087Z,10.52
2022-08-19T15:51:31.177Z,10.43
2022-08-19T15:53:59.307Z,10.70
2022-08-19T15:56:33.197Z,9.73
2022-08-19T15:59:19.300Z,10.48
2022-08-19T16:02:12.257Z,10.80
2022-08-19T16:04:59.296Z,10.50
2022-08-19T16:07:33.094Z,10.63
2022-08-19T16:10:26.565Z,10.88
2022-08-19T16:12:54.424Z,9.57
2022-08-19T16:15:21.919Z,10.40
2022-08-19T16:20:31.127Z,9.38
2022-08-19T16:22:59.023Z,10.20
2022-08-19T16:25:28.930Z,10.25
2022-08-19T16:28:07.499Z,10.38
2022-08-19T16:30:43.236Z,10.88
2022-08-19T16:33:33.410Z,10.50
2022-08-19T16:36:07.829Z,10.60
2022-08-19T16:38:44.220Z,10.80
2022-08-19T16:41:11.617Z,11.50
2022-08-19T16:46:14.420Z,11.02
2022-08-19T16:48:46.279Z,11.77
2022-08-19T16:51:35.104Z,10.85
2022-08-19T16:54:09.031Z,10.70
2022-08-19T16:56:43.208Z,11.43
2022-08-19T16:59:10.623Z,11.95
2022-08-19T17:04:12.341Z,11.88
2022-08-19T17:06:39.916Z,11.15
2022-08-19T17:09:07.930Z,12.15
2022-08-19T17:11:42.217Z,12.20
2022-08-19T17:14:09.859Z,11.27
2022-08-19T17:16:37.119Z,12.38
2022-08-19T17:19:12.205Z,11.68
2022-08-19T17:21:40.650Z,11.50
2022-08-19T17:24:08.651Z,11.93
2022-08-19T17:26:43.187Z,11.85
2022-08-19T17:29:10.397Z,11.88
2022-08-19T17:31:51.204Z,12.77
2022-08-19T17:34:18.460Z,12.80
2022-08-19T17:36:45.663Z,12.27
2022-08-19T17:39:21.219Z,12.07
2022-08-19T17:41:48.515Z,12.88
2022-08-19T17:44:15.651Z,12.02
2022-08-19T17:46:49.284Z,13.10
2022-08-19T17:49:16.791Z,12.95
2022-08-19T17:51:45.506Z,12.45
2022-08-19T17:54:22.267Z,12.35
2022-08-19T17:56:49.582Z,11.35
2022-08-19T17:59:16.870Z,10.23
2022-08-19T18:01:54.445Z,8.82
2022-08-19T18:04:23.283Z,7.53
2022-08-19T18:06:53.202Z,6.93
2022-08-19T18:09:41.158Z,6.53
2022-08-19T18:12:10.390Z,6.07
2022-08-19T18:14:46.219Z,5.88
2022-08-19T18:17:17.256Z,6.20
2022-08-19T18:19:44.746Z,6.57
2022-08-19T18:24:45.950Z,5.95
2022-08-19T18:27:13.323Z,6.05
2022-08-19T18:29:47.139Z,6.70
2022-08-19T18:32:23.855Z,8.50
2022-08-19T18:34:58.263Z,10.55
2022-08-19T18:37:26.464Z,8.65
2022-08-19T18:40:20.270Z,11.85
2022-08-19T18:43:23.220Z,9.32
2022-08-19T18:46:16.239Z,6.93
2022-08-19T18:49:02.244Z,8.52
2022-08-19T18:51:39.343Z,7.10
2022-08-19T18:54:06.812Z,7.40
2022-08-19T18:59:10.211Z,8.20
2022-08-19T19:01:39.838Z,9.20
2022-08-19T19:04:17.186Z,9.00
2022-08-19T19:06:44.793Z,9.25
2022-08-19T19:09:14.302Z,8.90
2022-08-19T19:11:51.326Z,9.35
2022-08-19T19:14:45.610Z,8.25
2022-08-19T19:17:20.272Z,8.52
2022-08-19T19:19:47.531Z,9.40
2022-08-19T19:22:17.887Z,8.85
2022-08-19T19:24:52.202Z,8.38
2022-08-19T19:27:20.583Z,8.27
2022-08-19T19:30:02.288Z,8.50
2022-08-19T19:32:39.112Z,8.45
2022-08-19T19:35:13.204Z,8.88
2022-08-19T19:37:40.467Z,9.07
2022-08-19T19:40:07.826Z,7.97
2022-08-19T19:42:42.222Z,8.50
2022-08-19T19:45:12.298Z,8.68
2022-08-19T19:47:39.425Z,8.95
2022-08-19T19:50:15.542Z,9.57
2022-08-19T19:52:45.491Z,8.93
2022-08-19T19:55:24.413Z,9.10
2022-08-19T19:57:53.693Z,8.95
2022-08-19T20:00:22.063Z,9.02
2022-08-19T20:02:56.239Z,10.05
2022-08-19T20:05:23.779Z,10.75
2022-08-19T20:10:47.860Z,12.38
2022-08-19T20:13:15.666Z,13.45
2022-08-19T20:15:53.298Z,11.93
2022-08-19T20:18:21.055Z,13.63
2022-08-19T20:20:49.972Z,13.73
2022-08-19T20:23:25.334Z,13.35
2022-08-19T20:25:53.010Z,13.02
2022-08-19T20:28:22.503Z,12.82
2022-08-19T20:30:57.213Z,13.05
2022-08-19T20:33:25.862Z,12.15
2022-08-19T20:35:53.135Z,12.68
2022-08-19T20:38:27.282Z,23.98
2022-08-19T20:40:54.497Z,16.17
2022-08-19T20:43:21.712Z,13.80
2022-08-19T20:45:55.252Z,14.40
2022-08-19T20:48:22.485Z,12.45
2022-08-19T20:50:49.708Z,14.25
2022-08-19T20:53:25.194Z,14.55
2022-08-19T20:55:52.783Z,15.20
2022-08-19T20:58:33.255Z,16.27
2022-08-19T21:01:01.604Z,13.88
2022-08-19T21:03:30.903Z,14.48
2022-08-19T21:06:05.228Z,13.80
2022-08-19T21:08:32.458Z,13.65
2022-08-19T21:10:59.707Z,12.95
2022-08-19T21:13:33.452Z,13.98
2022-08-19T21:16:00.659Z,14.23
2022-08-19T21:18:27.869Z,13.38
2022-08-19T21:21:02.345Z,13.77
2022-08-19T21:23:30.154Z,14.02
2022-08-19T21:25:58.244Z,15.23
2022-08-19T21:28:36.241Z,14.63
2022-08-19T21:31:11.376Z,15.68
2022-08-19T21:33:51.316Z,16.65
2022-08-19T21:36:18.579Z,16.35
2022-08-19T21:38:45.699Z,18.30
2022-08-19T21:41:19.529Z,16.08
2022-08-19T21:43:46.740Z,16.95
2022-08-19T21:46:13.912Z,14.93
2022-08-19T21:48:48.355Z,15.02
2022-08-19T21:51:15.887Z,14.60
2022-08-19T21:53:44.033Z,15.43
2022-08-19T21:56:19.458Z,15.50
2022-08-19T21:58:46.662Z,15.38
2022-08-19T22:01:13.831Z,15.27
2022-08-19T22:03:48.303Z,14.63
2022-08-19T22:06:16.359Z,15.50
2022-08-19T22:08:44.751Z,14.55
2022-08-19T22:11:18.280Z,14.63
2022-08-19T22:13:45.564Z,14.15
2022-08-19T22:16:14.036Z,14.45
2022-08-19T22:18:48.322Z,15.63
2022-08-19T22:21:15.507Z,15.38
2022-08-19T22:24:09.566Z,15.60
2022-08-19T22:26:36.755Z,14.93
2022-08-19T22:29:04.159Z,15.48
2022-08-19T22:31:38.345Z,13.93
2022-08-19T22:34:07.234Z,15.00
2022-08-19T22:39:08.419Z,14.02
2022-08-19T22:41:35.756Z,14.38
2022-08-19T22:44:03.790Z,14.90
2022-08-19T22:46:40.270Z,16.35
2022-08-19T22:49:07.564Z,17.80
2022-08-19T22:52:00.304Z,18.55
2022-08-19T22:54:27.569Z,17.65
2022-08-19T22:56:54.790Z,17.13
2022-08-19T22:59:29.337Z,20.90
2022-08-19T23:01:56.560Z,16.13
2022-08-19T23:04:23.786Z,17.55
2022-08-19T23:06:59.375Z,16.77
2022-08-19T23:09:30.451Z,19.42
2022-08-19T23:11:58.272Z,21.92
2022-08-19T23:14:32.384Z,17.33
2022-08-19T23:16:59.695Z,16.77
2022-08-19T23:19:26.853Z,17.25
2022-08-19T23:22:01.440Z,18.25
2022-08-19T23:24:28.736Z,20.45
2022-08-19T23:27:21.270Z,18.17
2022-08-19T23:30:10.051Z,20.52
2022-08-19T23:32:50.331Z,28.05
2022-08-19T23:35:24.541Z,20.80
2022-08-19T23:37:58.336Z,15.70
2022-08-19T23:40:25.524Z,17.95
2022-08-19T23:42:52.642Z,27.15
2022-08-19T23:45:27.393Z,30.08
2022-08-19T23:47:55.390Z,23.17
2022-08-19T23:50:24.017Z,17.38
2022-08-19T23:52:59.427Z,18.83
2022-08-19T23:55:29.784Z,16.77
2022-08-19T23:57:57.935Z,18.38
